createdAt,value
2023-02-27T00:01:10.445Z,74.70
2023-02-27T00:03:38.485Z,75.24
2023-02-27T00:06:06.987Z,72.56
2023-02-27T00:08:35.120Z,72.95
2023-02-27T00:11:03.255Z,73.24
2023-02-27T00:13:32.656Z,71.49
2023-02-27T00:16:00.797Z,73.43
2023-02-27T00:18:28.913Z,72.39
2023-02-27T00:20:56.920Z,73.03
2023-02-27T00:23:25.000Z,74.57
2023-02-27T00:25:54.863Z,72.53
2023-02-27T00:28:23.102Z,74.00
2023-02-27T00:30:52.518Z,72.60
2023-02-27T00:33:20.701Z,72.70
2023-02-27T00:35:56.697Z,71.82
2023-02-27T00:38:24.799Z,72.15
2023-02-27T00:40:53.026Z,73.18
2023-02-27T00:43:21.314Z,72.81
2023-02-27T00:45:50.466Z,71.38
2023-02-27T00:48:20.131Z,71.17
2023-02-27T00:50:48.424Z,69.63
2023-02-27T00:53:16.500Z,70.32
2023-02-27T00:55:44.610Z,70.15
2023-02-27T00:58:12.753Z,69.61
2023-02-27T01:00:40.906Z,69.85
2023-02-27T01:03:08.999Z,69.38
2023-02-27T01:05:38.446Z,69.66
2023-02-27T01:08:06.525Z,71.01
2023-02-27T01:10:34.600Z,69.24
2023-02-27T01:13:02.754Z,70.55
2023-02-27T01:15:30.789Z,70.38
2023-02-27T01:17:58.843Z,68.67
2023-02-27T01:20:26.948Z,68.34
2023-02-27T01:22:56.402Z,69.76
2023-02-27T01:25:24.560Z,69.22
2023-02-27T01:27:52.794Z,67.70
2023-02-27T01:30:20.971Z,68.44
2023-02-27T01:32:49.105Z,69.88
2023-02-27T01:35:17.975Z,69.86
2023-02-27T01:37:46.035Z,68.65
2023-02-27T01:40:16.161Z,68.71
2023-02-27T01:42:44.448Z,67.88
2023-02-27T01:45:34.656Z,67.85
2023-02-27T01:48:14.511Z,67.05
2023-02-27T01:50:49.559Z,67.16
2023-02-27T01:53:20.165Z,65.92
2023-02-27T01:55:51.089Z,64.51
2023-02-27T01:58:20.097Z,66.89
2023-02-27T02:00:49.385Z,67.60
2023-02-27T02:03:26.869Z,69.28
2023-02-27T02:05:58.070Z,67.23
2023-02-27T02:08:29.270Z,65.93
2023-02-27T02:10:59.732Z,68.16
2023-02-27T02:13:28.250Z,67.10
2023-02-27T02:16:11.560Z,66.47
2023-02-27T02:18:52.372Z,66.76
2023-02-27T02:22:07.440Z,67.14
2023-02-27T02:25:08.690Z,66.51
2023-02-27T02:27:49.880Z,67.87
2023-02-27T02:31:01.128Z,68.40
2023-02-27T02:34:02.748Z,67.20
2023-02-27T02:37:25.344Z,66.76
2023-02-27T02:40:14.338Z,65.40
2023-02-27T02:42:53.431Z,66.22
2023-02-27T02:45:29.376Z,65.38
2023-02-27T02:48:04.973Z,65.23
2023-02-27T02:50:40.745Z,65.63
2023-02-27T02:53:14.529Z,66.68
2023-02-27T02:55:49.742Z,65.44
2023-02-27T02:58:26.371Z,66.67
2023-02-27T03:01:01.216Z,65.73
2023-02-27T03:03:33.601Z,66.39
2023-02-27T03:06:06.532Z,66.97
2023-02-27T03:08:39.992Z,66.21
2023-02-27T03:11:09.738Z,65.41
2023-02-27T03:13:42.053Z,65.48
2023-02-27T03:16:15.599Z,64.78
2023-02-27T03:18:50.441Z,64.57
2023-02-27T03:21:26.286Z,64.75
2023-02-27T03:23:59.151Z,63.70
2023-02-27T03:26:35.106Z,64.03
2023-02-27T03:29:07.971Z,63.37
2023-02-27T03:31:43.711Z,62.46
2023-02-27T03:34:22.171Z,62.04
2023-02-27T03:36:59.544Z,61.00
2023-02-27T03:39:37.218Z,60.78
2023-02-27T03:42:16.254Z,60.50
2023-02-27T03:45:25.908Z,60.17
2023-02-27T03:47:54.569Z,59.03
2023-02-27T03:50:23.032Z,59.22
2023-02-27T03:52:51.647Z,57.58
2023-02-27T03:55:24.201Z,57.68
2023-02-27T03:57:54.253Z,58.57
2023-02-27T04:00:25.429Z,58.56
2023-02-27T04:02:55.495Z,59.30
2023-02-27T04:05:26.566Z,57.65
2023-02-27T04:08:28.931Z,57.14
2023-02-27T04:11:28.618Z,55.87
2023-02-27T04:14:12.886Z,55.00
2023-02-27T04:17:08.670Z,56.53
2023-02-27T04:19:52.487Z,56.30
2023-02-27T04:22:34.013Z,56.07
2023-02-27T04:25:12.657Z,56.61
2023-02-27T04:27:47.402Z,56.03
2023-02-27T04:30:27.505Z,55.78
2023-02-27T04:33:01.590Z,54.83
2023-02-27T04:35:36.249Z,54.35
2023-02-27T04:38:10.752Z,53.86
2023-02-27T04:40:44.680Z,53.71
2023-02-27T04:43:16.050Z,53.46
2023-02-27T04:45:47.759Z,53.34
2023-02-27T04:48:20.780Z,53.31
2023-02-27T04:50:56.221Z,52.95
2023-02-27T04:53:27.740Z,52.51
2023-02-27T04:56:02.315Z,52.40
2023-02-27T04:58:34.916Z,52.12
2023-02-27T05:01:09.794Z,51.91
2023-02-27T05:03:41.595Z,51.45
2023-02-27T05:06:11.709Z,52.24
2023-02-27T05:08:45.563Z,51.83
2023-02-27T05:11:22.817Z,51.57
2023-02-27T05:13:56.265Z,51.82
2023-02-27T05:16:33.197Z,51.65
2023-02-27T05:19:03.150Z,52.09
2023-02-27T05:21:38.494Z,52.42
2023-02-27T05:24:15.450Z,53.42
2023-02-27T05:26:57.975Z,54.58
2023-02-27T05:29:34.440Z,55.95
2023-02-27T05:32:15.605Z,55.44
2023-02-27T05:34:50.539Z,54.99
2023-02-27T05:37:24.409Z,54.96
2023-02-27T05:39:54.020Z,54.66
2023-02-27T05:42:27.918Z,54.43
2023-02-27T05:45:01.487Z,54.40
2023-02-27T05:47:34.243Z,54.44
2023-02-27T05:50:10.131Z,55.23
2023-02-27T05:52:39.698Z,56.13
2023-02-27T05:55:13.064Z,55.91
2023-02-27T05:57:46.499Z,56.93
2023-02-27T06:00:21.151Z,60.55
2023-02-27T06:02:50.834Z,61.87
2023-02-27T06:05:21.123Z,61.38
2023-02-27T06:07:49.192Z,61.49
2023-02-27T06:10:19.440Z,63.11
2023-02-27T06:12:47.576Z,63.07
2023-02-27T06:15:15.682Z,62.05
2023-02-27T06:17:43.865Z,63.32
2023-02-27T06:20:14.282Z,65.35
2023-02-27T06:22:42.331Z,65.68
2023-02-27T06:25:11.363Z,69.30
2023-02-27T06:27:39.456Z,69.52
2023-02-27T06:30:08.842Z,67.90
2023-02-27T06:32:36.984Z,68.33
2023-02-27T06:35:06.098Z,68.83
2023-02-27T06:37:35.581Z,67.30
2023-02-27T06:40:05.909Z,67.45
2023-02-27T06:42:34.152Z,66.30
2023-02-27T06:45:02.191Z,66.92
2023-02-27T06:47:30.223Z,67.78
2023-02-27T06:49:58.372Z,69.46
2023-02-27T06:52:26.554Z,69.14
2023-02-27T06:54:56.213Z,69.03
2023-02-27T06:57:24.357Z,67.97
2023-02-27T06:59:52.417Z,68.17
2023-02-27T07:02:20.549Z,68.36
2023-02-27T07:04:48.671Z,67.67
2023-02-27T07:07:33.939Z,68.04
2023-02-27T07:10:08.356Z,68.00
2023-02-27T07:12:36.483Z,68.40
2023-02-27T07:15:05.378Z,68.40
2023-02-27T07:17:33.406Z,67.92
2023-02-27T07:20:01.435Z,66.40
2023-02-27T07:22:29.546Z,65.92
2023-02-27T07:24:57.668Z,66.12
2023-02-27T07:27:27.173Z,65.23
2023-02-27T07:29:55.309Z,64.35
2023-02-27T07:32:23.501Z,64.22
2023-02-27T07:34:51.598Z,63.73
2023-02-27T07:37:19.749Z,63.50
2023-02-27T07:39:47.899Z,62.65
2023-02-27T07:42:16.704Z,63.16
2023-02-27T07:44:46.352Z,63.09
2023-02-27T07:47:14.412Z,63.25
2023-02-27T07:49:42.519Z,62.57
2023-02-27T07:52:11.377Z,63.05
2023-02-27T07:54:39.557Z,62.95
2023-02-27T07:57:07.912Z,62.48
2023-02-27T07:59:36.040Z,61.94
2023-02-27T08:02:05.488Z,60.87
2023-02-27T08:04:33.642Z,61.33
2023-02-27T08:07:01.874Z,60.88
2023-02-27T08:09:30.834Z,60.65
2023-02-27T08:11:59.037Z,60.47
2023-02-27T08:14:27.129Z,59.73
2023-02-27T08:16:55.194Z,59.35
2023-02-27T08:19:24.573Z,58.08
2023-02-27T08:21:52.612Z,57.67
2023-02-27T08:24:20.737Z,57.23
2023-02-27T08:26:48.953Z,56.64
2023-02-27T08:29:17.420Z,56.24
2023-02-27T08:31:46.875Z,55.30
2023-02-27T08:34:16.519Z,54.84
2023-02-27T08:36:46.554Z,54.61
2023-02-27T08:39:14.620Z,54.35
2023-02-27T08:41:42.952Z,54.43
2023-02-27T08:44:13.086Z,54.08
2023-02-27T08:46:41.505Z,53.35
2023-02-27T08:49:09.582Z,53.04
2023-02-27T08:51:37.633Z,52.92
2023-02-27T08:54:07.177Z,53.02
2023-02-27T08:56:35.669Z,53.57
2023-02-27T08:59:03.771Z,54.09
2023-02-27T09:01:34.680Z,54.39
2023-02-27T09:04:04.004Z,54.35
2023-02-27T09:06:34.079Z,54.35
2023-02-27T09:09:02.302Z,53.73
2023-02-27T09:11:32.008Z,52.94
2023-02-27T09:14:00.324Z,53.10
2023-02-27T09:16:28.947Z,53.13
2023-02-27T09:18:57.225Z,52.28
2023-02-27T09:21:25.768Z,52.12
2023-02-27T09:23:55.001Z,52.29
2023-02-27T09:26:39.745Z,52.64
2023-02-27T09:29:11.755Z,51.23
2023-02-27T09:31:39.790Z,50.87
2023-02-27T09:34:07.890Z,52.07
2023-02-27T09:36:36.155Z,51.67
2023-02-27T09:39:04.967Z,51.23
2023-02-27T09:41:50.824Z,53.42
2023-02-27T09:44:45.307Z,52.63
2023-02-27T09:47:19.626Z,53.14
2023-02-27T09:50:03.732Z,53.55
2023-02-27T09:52:35.125Z,53.63
2023-02-27T09:55:04.291Z,53.10
2023-02-27T09:57:43.891Z,53.51
2023-02-27T10:00:31.913Z,53.68
2023-02-27T10:03:17.077Z,53.95
2023-02-27T10:05:54.121Z,53.76
2023-02-27T10:08:30.501Z,54.30
2023-02-27T10:11:04.854Z,54.46
2023-02-27T10:13:50.541Z,54.08
2023-02-27T10:16:22.848Z,53.45
2023-02-27T10:18:58.165Z,54.31
2023-02-27T10:21:32.780Z,58.17
2023-02-27T10:24:08.448Z,57.06
2023-02-27T10:26:40.696Z,56.95
2023-02-27T10:29:20.101Z,57.33
2023-02-27T10:31:56.921Z,57.47
2023-02-27T10:34:28.274Z,57.50
2023-02-27T10:36:57.990Z,62.27
2023-02-27T10:39:27.148Z,65.34
2023-02-27T10:41:55.815Z,64.61
2023-02-27T10:44:24.626Z,64.02
2023-02-27T10:46:54.048Z,67.36
2023-02-27T10:49:23.318Z,71.56
2023-02-27T10:52:07.127Z,71.62
2023-02-27T10:54:35.312Z,71.43
2023-02-27T10:57:05.482Z,71.54
2023-02-27T10:59:36.612Z,71.01
2023-02-27T11:02:21.035Z,71.62
2023-02-27T11:04:54.166Z,69.59
2023-02-27T11:07:32.332Z,70.07
2023-02-27T11:10:03.725Z,70.11
2023-02-27T11:12:34.309Z,67.66
2023-02-27T11:15:05.022Z,68.19
2023-02-27T11:17:36.919Z,66.21
2023-02-27T11:20:07.250Z,64.79
2023-02-27T11:22:35.366Z,64.04
2023-02-27T11:25:27.586Z,63.52
2023-02-27T11:28:14.754Z,61.82
2023-02-27T11:30:44.612Z,60.77
2023-02-27T11:33:21.088Z,60.76
2023-02-27T11:35:56.971Z,62.89
2023-02-27T11:38:28.810Z,64.27
2023-02-27T11:40:58.667Z,61.64
2023-02-27T11:43:29.342Z,60.23
2023-02-27T11:46:04.291Z,61.37
2023-02-27T11:48:40.810Z,60.25
2023-02-27T11:51:34.354Z,58.04
2023-02-27T11:54:22.009Z,57.38
2023-02-27T11:56:55.287Z,59.89
2023-02-27T11:59:37.831Z,58.17
2023-02-27T12:02:16.798Z,57.70
2023-02-27T12:04:52.437Z,55.45
2023-02-27T12:07:25.851Z,55.20
2023-02-27T12:10:03.166Z,54.83
2023-02-27T12:12:37.874Z,54.38
2023-02-27T12:15:16.409Z,54.20
2023-02-27T12:17:48.943Z,53.80
2023-02-27T12:20:29.254Z,54.43
2023-02-27T12:22:57.511Z,55.13
2023-02-27T12:25:44.198Z,54.96
2023-02-27T12:28:36.550Z,54.71
2023-02-27T12:31:29.130Z,55.06
2023-02-27T12:34:07.527Z,55.03
2023-02-27T12:36:37.243Z,55.12
2023-02-27T12:39:05.861Z,57.32
2023-02-27T12:41:42.350Z,58.79
2023-02-27T12:44:24.584Z,58.97
2023-02-27T12:46:59.808Z,58.98
2023-02-27T12:49:40.516Z,60.38
2023-02-27T12:52:21.284Z,59.61
2023-02-27T12:55:01.621Z,60.37
2023-02-27T12:57:38.439Z,62.74
2023-02-27T13:00:15.969Z,62.67
2023-02-27T13:02:51.727Z,62.44
2023-02-27T13:05:43.037Z,62.31
2023-02-27T13:08:25.495Z,62.47
2023-02-27T13:11:00.810Z,61.96
2023-02-27T13:13:36.606Z,62.00
2023-02-27T13:16:08.367Z,62.15
2023-02-27T13:18:45.794Z,62.12
2023-02-27T13:21:19.793Z,62.12
2023-02-27T13:23:59.501Z,61.84
2023-02-27T13:26:31.860Z,60.89
2023-02-27T13:29:01.054Z,61.02
2023-02-27T13:31:37.711Z,60.59
2023-02-27T13:34:14.703Z,60.58
2023-02-27T13:36:46.447Z,59.89
2023-02-27T13:39:43.872Z,59.13
2023-02-27T13:42:49.095Z,58.14
2023-02-27T13:45:56.966Z,58.43
2023-02-27T13:48:42.380Z,57.53
2023-02-27T13:51:32.634Z,56.90
2023-02-27T13:54:20.614Z,55.43
2023-02-27T13:56:51.660Z,55.61
2023-02-27T13:59:24.560Z,55.07
2023-02-27T14:01:55.384Z,55.06
2023-02-27T14:04:26.401Z,54.63
2023-02-27T14:07:00.243Z,54.50
2023-02-27T14:09:35.337Z,53.63
2023-02-27T14:12:07.449Z,53.81
2023-02-27T14:14:49.148Z,52.50
2023-02-27T14:17:41.342Z,52.54
2023-02-27T14:20:14.954Z,52.29
2023-02-27T14:23:09.775Z,53.47
2023-02-27T14:25:41.270Z,52.93
2023-02-27T14:28:21.755Z,53.14
2023-02-27T14:30:55.649Z,52.66
2023-02-27T14:33:39.523Z,52.35
2023-02-27T14:36:11.255Z,52.75
2023-02-27T14:38:44.084Z,53.21
2023-02-27T14:41:28.352Z,55.58
2023-02-27T14:43:59.867Z,55.25
2023-02-27T14:46:30.779Z,55.28
2023-02-27T14:49:01.908Z,55.50
2023-02-27T14:51:32.963Z,56.54
2023-02-27T14:54:03.254Z,56.79
2023-02-27T14:56:32.230Z,56.73
2023-02-27T14:59:04.588Z,56.61
2023-02-27T15:01:37.554Z,56.85
2023-02-27T15:04:08.105Z,57.09
2023-02-27T15:06:43.444Z,57.05
2023-02-27T15:09:22.998Z,60.65
2023-02-27T15:12:03.045Z,58.67
2023-02-27T15:14:38.205Z,59.98
2023-02-27T15:17:15.846Z,62.64
2023-02-27T15:19:48.920Z,63.29
2023-02-27T15:22:36.064Z,63.24
2023-02-27T15:25:08.072Z,61.95
2023-02-27T15:27:38.282Z,61.69
2023-02-27T15:30:09.799Z,61.57
2023-02-27T15:32:42.171Z,62.35
2023-02-27T15:35:18.630Z,61.73
2023-02-27T15:37:52.163Z,62.60
2023-02-27T15:40:23.916Z,63.56
2023-02-27T15:42:53.646Z,63.24
2023-02-27T15:45:26.226Z,62.42
2023-02-27T15:47:55.008Z,63.05
2023-02-27T15:50:28.377Z,62.76
2023-02-27T15:53:02.757Z,62.94
2023-02-27T15:55:33.629Z,63.36
2023-02-27T15:58:03.700Z,64.23
2023-02-27T16:00:36.581Z,63.57
2023-02-27T16:03:09.976Z,63.57
2023-02-27T16:05:42.680Z,63.42
2023-02-27T16:08:19.195Z,63.36
2023-02-27T16:10:48.481Z,62.77
2023-02-27T16:13:31.299Z,63.34
2023-02-27T16:16:04.332Z,64.24
2023-02-27T16:18:34.946Z,64.19
2023-02-27T16:21:14.658Z,64.08
2023-02-27T16:23:45.133Z,63.73
2023-02-27T16:26:32.015Z,62.80
2023-02-27T16:29:02.770Z,63.62
2023-02-27T16:31:35.075Z,62.93
2023-02-27T16:34:14.457Z,62.97
2023-02-27T16:36:43.990Z,62.26
2023-02-27T16:39:13.944Z,62.41
2023-02-27T16:41:42.174Z,62.12
2023-02-27T16:44:10.545Z,62.26
2023-02-27T16:46:40.009Z,62.62
2023-02-27T16:49:20.200Z,62.00
2023-02-27T16:51:48.511Z,61.48
2023-02-27T16:54:17.148Z,61.79
2023-02-27T16:56:46.547Z,61.44
2023-02-27T16:59:28.234Z,61.47
2023-02-27T17:01:58.797Z,61.22
2023-02-27T17:04:28.978Z,61.14
2023-02-27T17:06:59.094Z,61.13
2023-02-27T17:09:28.374Z,61.96
2023-02-27T17:11:57.744Z,61.61
2023-02-27T17:14:26.166Z,61.98
2023-02-27T17:16:54.333Z,62.16
2023-02-27T17:19:24.058Z,62.49
2023-02-27T17:21:52.292Z,62.33
2023-02-27T17:24:20.447Z,62.68
2023-02-27T17:26:49.685Z,62.51
2023-02-27T17:29:19.069Z,62.57
2023-02-27T17:31:47.302Z,62.21
2023-02-27T17:34:16.880Z,62.34
2023-02-27T17:36:46.391Z,63.12
2023-02-27T17:39:15.669Z,63.40
2023-02-27T17:41:45.424Z,63.50
2023-02-27T17:44:14.119Z,63.12
2023-02-27T17:46:44.980Z,63.78
2023-02-27T17:49:13.086Z,63.99
2023-02-27T17:51:41.161Z,63.59
2023-02-27T17:54:10.762Z,63.98
2023-02-27T17:56:39.527Z,62.89
2023-02-27T17:59:08.719Z,62.98
2023-02-27T18:01:36.886Z,62.82
2023-02-27T18:04:05.139Z,61.96
2023-02-27T18:06:33.257Z,62.18
2023-02-27T18:09:01.444Z,61.57
2023-02-27T18:11:31.047Z,61.81
2023-02-27T18:13:59.322Z,61.81
2023-02-27T18:16:27.922Z,61.66
2023-02-27T18:18:56.312Z,61.60
2023-02-27T18:21:25.170Z,61.76
2023-02-27T18:23:53.637Z,61.42
2023-02-27T18:26:30.037Z,61.63
2023-02-27T18:29:02.179Z,61.59
2023-02-27T18:31:32.487Z,61.88
2023-02-27T18:34:01.265Z,62.27
2023-02-27T18:36:30.119Z,62.36
2023-02-27T18:38:58.881Z,64.12
2023-02-27T18:41:27.221Z,65.17
2023-02-27T18:43:55.418Z,64.03
2023-02-27T18:46:25.203Z,63.56
2023-02-27T18:48:53.303Z,62.86
2023-02-27T18:51:22.659Z,63.67
2023-02-27T18:53:51.824Z,63.13
2023-02-27T18:56:22.950Z,63.68
2023-02-27T18:58:51.537Z,63.14
2023-02-27T19:01:21.871Z,62.12
2023-02-27T19:03:53.454Z,61.81
2023-02-27T19:06:21.522Z,61.76
2023-02-27T19:08:49.597Z,61.28
2023-02-27T19:11:25.312Z,61.13
2023-02-27T19:13:53.525Z,61.07
2023-02-27T19:16:21.783Z,60.84
2023-02-27T19:18:51.287Z,60.73
2023-02-27T19:21:20.218Z,60.62
2023-02-27T19:23:48.245Z,60.86
2023-02-27T19:26:16.428Z,60.89
2023-02-27T19:28:44.518Z,60.73
2023-02-27T19:31:14.716Z,60.55
2023-02-27T19:33:42.832Z,60.98
2023-02-27T19:36:14.528Z,60.51
2023-02-27T19:38:42.775Z,60.67
2023-02-27T19:41:14.802Z,60.23
2023-02-27T19:43:43.108Z,59.90
2023-02-27T19:46:14.096Z,59.61
2023-02-27T19:48:42.993Z,59.52
2023-02-27T19:51:14.770Z,59.41
2023-02-27T19:53:45.329Z,59.44
2023-02-27T19:56:15.086Z,59.91
2023-02-27T19:58:43.377Z,60.08
2023-02-27T20:01:12.506Z,60.18
2023-02-27T20:03:43.843Z,60.22
2023-02-27T20:06:18.978Z,59.81
2023-02-27T20:08:48.636Z,59.53
2023-02-27T20:11:17.485Z,59.23
2023-02-27T20:13:45.760Z,59.56
2023-02-27T20:16:16.493Z,59.34
2023-02-27T20:18:45.048Z,59.38
2023-02-27T20:21:15.750Z,59.41
2023-02-27T20:23:46.516Z,59.19
2023-02-27T20:26:18.166Z,59.22
2023-02-27T20:28:47.362Z,59.06
2023-02-27T20:31:17.109Z,59.18
2023-02-27T20:33:45.273Z,59.04
2023-02-27T20:36:16.135Z,58.79
2023-02-27T20:38:46.160Z,58.76
2023-02-27T20:41:18.472Z,59.05
2023-02-27T20:43:46.636Z,59.05
2023-02-27T20:46:18.140Z,58.79
2023-02-27T20:48:46.389Z,58.28
2023-02-27T20:51:16.576Z,58.46
2023-02-27T20:53:48.260Z,58.18
2023-02-27T20:56:16.953Z,58.19
2023-02-27T20:58:45.213Z,57.88
2023-02-27T21:01:15.766Z,58.05
2023-02-27T21:03:45.245Z,58.06
2023-02-27T21:06:15.648Z,58.17
2023-02-27T21:08:47.213Z,58.36
2023-02-27T21:11:17.852Z,58.56
2023-02-27T21:13:47.324Z,58.54
2023-02-27T21:16:16.728Z,58.61
2023-02-27T21:18:45.627Z,58.62
2023-02-27T21:21:23.972Z,58.79
2023-02-27T21:23:53.852Z,58.79
2023-02-27T21:26:24.678Z,59.40
2023-02-27T21:28:54.046Z,59.73
2023-02-27T21:31:24.325Z,59.51
2023-02-27T21:33:53.255Z,59.61
2023-02-27T21:36:26.606Z,59.50
2023-02-27T21:39:01.004Z,59.12
2023-02-27T21:41:30.768Z,58.95
2023-02-27T21:44:00.315Z,58.86
2023-02-27T21:46:29.367Z,59.12
2023-02-27T21:48:57.867Z,59.81
2023-02-27T21:51:38.827Z,59.94
2023-02-27T21:54:11.976Z,59.58
2023-02-27T21:56:41.258Z,59.36
2023-02-27T21:59:09.688Z,59.35
2023-02-27T22:01:38.223Z,59.14
2023-02-27T22:04:07.738Z,59.22
2023-02-27T22:06:35.986Z,59.29
2023-02-27T22:09:06.385Z,59.28
2023-02-27T22:11:36.453Z,58.72
2023-02-27T22:14:06.839Z,58.77
2023-02-27T22:16:35.160Z,58.86
2023-02-27T22:19:06.290Z,58.88
2023-02-27T22:21:34.767Z,59.25
2023-02-27T22:24:02.918Z,59.22
2023-02-27T22:26:32.777Z,59.38
2023-02-27T22:29:02.472Z,59.84
2023-02-27T22:31:33.440Z,59.97
2023-02-27T22:34:04.248Z,59.58
2023-02-27T22:36:33.582Z,59.79
2023-02-27T22:39:01.966Z,59.54
2023-02-27T22:41:32.211Z,59.18
2023-02-27T22:44:03.031Z,59.17
2023-02-27T22:46:33.295Z,59.25
2023-02-27T22:49:03.335Z,59.17
2023-02-27T22:51:31.849Z,58.64
2023-02-27T22:54:03.141Z,57.97
2023-02-27T22:56:31.970Z,57.91
2023-02-27T22:59:00.189Z,58.04
2023-02-27T23:01:32.474Z,58.21
2023-02-27T23:04:02.450Z,58.64
2023-02-27T23:06:32.436Z,58.86
2023-02-27T23:09:00.818Z,59.48
2023-02-27T23:11:29.228Z,59.17
2023-02-27T23:13:57.642Z,59.23
2023-02-27T23:16:26.030Z,59.07
2023-02-27T23:18:57.550Z,59.15
2023-02-27T23:21:29.894Z,59.35
2023-02-27T23:23:58.531Z,59.19
2023-02-27T23:26:28.488Z,58.88
2023-02-27T23:28:57.242Z,58.62
2023-02-27T23:31:26.064Z,58.47
2023-02-27T23:33:55.586Z,58.52
2023-02-27T23:36:23.818Z,58.66
2023-02-27T23:38:51.904Z,58.76
2023-02-27T23:41:20.914Z,58.82
2023-02-27T23:44:10.353Z,59.03
2023-02-27T23:46:39.042Z,58.93
2023-02-27T23:49:08.916Z,59.13
2023-02-27T23:51:37.275Z,59.60
2023-02-27T23:54:05.661Z,59.71
2023-02-27T23:56:34.181Z,59.82
2023-02-27T23:59:04.313Z,59.82
